createdAt,value
2023-04-02T00:01:38.547Z,10.72
2023-04-02T00:04:30.361Z,10.76
2023-04-02T00:07:33.769Z,10.77
2023-04-02T00:10:02.642Z,10.67
2023-04-02T00:12:31.118Z,10.64
2023-04-02T00:15:00.426Z,10.65
2023-04-02T00:17:29.223Z,10.68
2023-04-02T00:20:06.631Z,10.68
2023-04-02T00:22:35.053Z,10.63
2023-04-02T00:25:12.700Z,10.56
2023-04-02T00:27:41.544Z,10.55
2023-04-02T00:30:13.660Z,10.58
2023-04-02T00:32:42.949Z,10.58
2023-04-02T00:35:25.624Z,10.62
2023-04-02T00:37:55.084Z,10.70
2023-04-02T00:40:25.792Z,10.76
2023-04-02T00:42:58.305Z,10.80
2023-04-02T00:45:31.297Z,10.80
2023-04-02T00:48:16.760Z,10.76
2023-04-02T00:50:46.489Z,10.71
2023-04-02T00:53:29.922Z,10.67
2023-04-02T00:55:59.365Z,10.65
2023-04-02T00:58:30.121Z,10.63
2023-04-02T01:00:59.639Z,10.64
2023-04-02T01:03:39.296Z,10.65
2023-04-02T01:06:15.661Z,10.66
2023-04-02T01:09:27.755Z,10.62
2023-04-02T01:12:26.939Z,10.59
2023-04-02T01:15:19.825Z,10.60
2023-04-02T01:18:02.535Z,10.59
2023-04-02T01:21:09.238Z,10.58
2023-04-02T01:24:07.924Z,10.60
2023-04-02T01:27:09.156Z,10.61
2023-04-02T01:29:45.632Z,10.62
2023-04-02T01:32:17.710Z,10.60
2023-04-02T01:34:47.724Z,10.60
2023-04-02T01:37:50.483Z,10.59
2023-04-02T01:40:54.592Z,10.55
2023-04-02T01:43:26.347Z,10.54
2023-04-02T01:45:58.593Z,10.58
2023-04-02T01:48:31.096Z,10.60
2023-04-02T01:51:03.951Z,10.57
2023-04-02T01:53:32.570Z,10.57
2023-04-02T01:56:02.837Z,10.53
2023-04-02T01:58:33.654Z,10.45
2023-04-02T02:01:14.875Z,10.40
2023-04-02T02:03:45.212Z,10.40
2023-04-02T02:06:16.644Z,10.35
2023-04-02T02:09:03.939Z,10.30
2023-04-02T02:11:34.002Z,10.26
2023-04-02T02:14:12.211Z,10.22
2023-04-02T02:16:44.590Z,10.20
2023-04-02T02:19:41.458Z,10.20
2023-04-02T02:22:31.196Z,10.20
2023-04-02T02:25:03.094Z,10.22
2023-04-02T02:27:51.438Z,10.25
2023-04-02T02:30:22.893Z,10.25
2023-04-02T02:33:03.513Z,10.26
2023-04-02T02:35:43.556Z,10.28
2023-04-02T02:38:27.442Z,10.33
2023-04-02T02:41:22.856Z,10.40
2023-04-02T02:44:05.152Z,10.48
2023-04-02T02:46:38.148Z,10.53
2023-04-02T02:49:14.602Z,10.56
2023-04-02T02:51:50.051Z,10.59
2023-04-02T02:54:22.218Z,10.62
2023-04-02T02:56:57.511Z,10.63
2023-04-02T02:59:28.605Z,10.69
2023-04-02T03:01:58.400Z,10.75
2023-04-02T03:04:30.795Z,10.80
2023-04-02T03:07:00.612Z,10.84
2023-04-02T03:09:39.508Z,10.84
2023-04-02T03:12:13.968Z,10.77
2023-04-02T03:15:01.337Z,10.69
2023-04-02T03:17:41.700Z,10.63
2023-04-02T03:20:27.828Z,10.57
2023-04-02T03:23:19.976Z,10.53
2023-04-02T03:26:21.288Z,10.49
2023-04-02T03:29:08.816Z,10.46
2023-04-02T03:31:41.957Z,10.42
2023-04-02T03:34:25.690Z,10.38
2023-04-02T03:37:04.853Z,10.31
2023-04-02T03:39:48.073Z,10.26
2023-04-02T03:42:26.171Z,10.22
2023-04-02T03:45:06.456Z,10.17
2023-04-02T03:47:51.419Z,10.14
2023-04-02T03:50:34.647Z,10.12
2023-04-02T03:53:05.414Z,10.10
2023-04-02T03:55:38.220Z,10.06
2023-04-02T03:58:17.606Z,10.05
2023-04-02T04:01:06.858Z,10.07
2023-04-02T04:03:52.942Z,10.08
2023-04-02T04:06:28.985Z,10.06
2023-04-02T04:09:37.404Z,10.07
2023-04-02T04:12:28.410Z,10.07
2023-04-02T04:15:29.334Z,10.09
2023-04-02T04:18:34.935Z,10.10
2023-04-02T04:21:30.320Z,10.13
2023-04-02T04:24:22.057Z,10.13
2023-04-02T04:27:04.796Z,10.16
2023-04-02T04:30:04.304Z,10.20
2023-04-02T04:32:39.291Z,10.27
2023-04-02T04:35:25.105Z,10.29
2023-04-02T04:38:05.976Z,10.32
2023-04-02T04:40:38.051Z,10.24
2023-04-02T04:43:19.122Z,10.14
2023-04-02T04:46:00.576Z,10.06
2023-04-02T04:48:37.991Z,9.98
2023-04-02T04:51:17.940Z,9.93
2023-04-02T04:53:49.632Z,9.90
2023-04-02T04:56:22.480Z,9.93
2023-04-02T04:59:13.895Z,9.99
2023-04-02T05:02:08.989Z,10.09
2023-04-02T05:04:40.833Z,10.22
2023-04-02T05:07:36.869Z,10.28
2023-04-02T05:10:18.199Z,10.33
2023-04-02T05:12:54.717Z,10.34
2023-04-02T05:15:32.514Z,10.36
2023-04-02T05:18:36.613Z,10.41
2023-04-02T05:21:52.483Z,10.42
2023-04-02T05:24:57.917Z,10.41
2023-04-02T05:27:52.975Z,10.39
2023-04-02T05:30:24.665Z,10.33
2023-04-02T05:33:00.736Z,10.32
2023-04-02T05:35:35.435Z,10.34
2023-04-02T05:38:06.753Z,10.36
2023-04-02T05:40:41.212Z,10.34
2023-04-02T05:43:14.158Z,10.34
2023-04-02T05:45:52.633Z,10.32
2023-04-02T05:48:32.784Z,10.33
2023-04-02T05:51:05.092Z,10.30
2023-04-02T05:53:38.222Z,10.28
2023-04-02T05:56:49.018Z,10.24
2023-04-02T05:59:27.516Z,10.23
2023-04-02T06:02:03.082Z,10.26
2023-04-02T06:04:50.596Z,10.26
2023-04-02T06:07:28.573Z,10.25
2023-04-02T06:10:08.305Z,10.25
2023-04-02T06:12:49.824Z,10.23
2023-04-02T06:15:25.021Z,10.23
2023-04-02T06:18:30.085Z,10.27
2023-04-02T06:21:00.916Z,10.32
2023-04-02T06:24:00.625Z,10.36
2023-04-02T06:26:56.532Z,10.41
2023-04-02T06:29:38.751Z,10.45
2023-04-02T06:32:11.758Z,10.49
2023-04-02T06:34:44.168Z,10.52
2023-04-02T06:37:43.079Z,10.54
2023-04-02T06:40:49.947Z,10.52
2023-04-02T06:43:49.842Z,10.50
2023-04-02T06:46:46.678Z,10.49
2023-04-02T06:49:31.745Z,10.50
2023-04-02T06:52:06.785Z,10.48
2023-04-02T06:54:35.575Z,10.50
2023-04-02T06:57:10.037Z,10.52
2023-04-02T06:59:41.577Z,10.57
2023-04-02T07:02:39.988Z,10.62
2023-04-02T07:05:11.916Z,10.63
2023-04-02T07:07:46.229Z,10.61
2023-04-02T07:10:15.818Z,10.60
2023-04-02T07:12:44.573Z,10.59
2023-04-02T07:15:19.356Z,10.61
2023-04-02T07:17:48.507Z,10.57
2023-04-02T07:20:29.929Z,10.58
2023-04-02T07:23:01.066Z,10.58
2023-04-02T07:25:29.666Z,10.57
2023-04-02T07:27:58.155Z,10.56
2023-04-02T07:30:26.836Z,10.58
2023-04-02T07:32:55.301Z,10.61
2023-04-02T07:35:24.118Z,10.63
2023-04-02T07:37:53.064Z,10.62
2023-04-02T07:40:23.169Z,10.62
2023-04-02T07:42:51.838Z,10.61
2023-04-02T07:45:20.523Z,10.60
2023-04-02T07:47:49.774Z,10.59
2023-04-02T07:50:18.523Z,10.60
2023-04-02T07:52:46.797Z,10.59
2023-04-02T07:55:17.135Z,10.59
2023-04-02T07:57:51.262Z,10.58
2023-04-02T08:00:20.850Z,10.58
2023-04-02T08:02:49.490Z,10.54
2023-04-02T08:05:18.338Z,10.53
2023-04-02T08:07:57.336Z,10.51
2023-04-02T08:10:25.652Z,10.50
2023-04-02T08:12:54.355Z,10.49
2023-04-02T08:15:22.634Z,10.48
2023-04-02T08:17:52.265Z,10.49
2023-04-02T08:20:22.506Z,10.48
2023-04-02T08:22:50.956Z,10.47
2023-04-02T08:25:19.445Z,10.49
2023-04-02T08:27:48.932Z,10.50
2023-04-02T08:30:18.365Z,10.52
2023-04-02T08:32:47.102Z,10.53
2023-04-02T08:35:17.078Z,10.53
2023-04-02T08:37:45.890Z,10.51
2023-04-02T08:40:27.653Z,10.52
2023-04-02T08:43:04.260Z,10.51
2023-04-02T08:46:07.881Z,10.50
2023-04-02T08:48:42.619Z,10.46
2023-04-02T08:51:34.600Z,10.47
2023-04-02T08:54:34.868Z,10.49
2023-04-02T08:57:16.603Z,10.53
2023-04-02T08:59:46.084Z,10.55
2023-04-02T09:02:37.544Z,10.57
2023-04-02T09:05:15.780Z,10.61
2023-04-02T09:07:44.285Z,10.63
2023-04-02T09:10:25.768Z,10.62
2023-04-02T09:12:54.766Z,10.66
2023-04-02T09:15:31.738Z,10.68
2023-04-02T09:18:11.973Z,10.70
2023-04-02T09:20:41.106Z,10.77
2023-04-02T09:23:29.750Z,10.84
2023-04-02T09:26:04.191Z,10.88
2023-04-02T09:28:33.583Z,10.93
2023-04-02T09:31:24.500Z,10.96
2023-04-02T09:33:54.867Z,11.02
2023-04-02T09:36:40.162Z,11.07
2023-04-02T09:39:23.868Z,11.12
2023-04-02T09:42:05.433Z,11.16
2023-04-02T09:44:35.243Z,11.24
2023-04-02T09:47:25.811Z,11.27
2023-04-02T09:49:54.194Z,11.30
2023-04-02T09:52:29.972Z,11.35
2023-04-02T09:55:21.049Z,11.36
2023-04-02T09:57:51.688Z,11.36
2023-04-02T10:03:07.188Z,11.36
2023-04-02T10:05:40.990Z,11.36
2023-04-02T10:08:20.221Z,11.38
2023-04-02T10:10:53.749Z,11.43
2023-04-02T10:13:54.138Z,11.46
2023-04-02T10:16:43.955Z,11.47
2023-04-02T10:19:25.496Z,11.47
2023-04-02T10:21:56.769Z,11.47
2023-04-02T10:24:28.443Z,11.52
2023-04-02T10:27:33.844Z,11.63
2023-04-02T10:30:24.441Z,11.77
2023-04-02T10:33:23.563Z,11.84
2023-04-02T10:36:06.581Z,11.96
2023-04-02T10:38:42.790Z,12.12
2023-04-02T10:41:32.882Z,12.25
2023-04-02T10:44:20.767Z,12.32
2023-04-02T10:47:07.921Z,12.33
2023-04-02T10:49:51.364Z,12.41
2023-04-02T10:52:50.497Z,12.46
2023-04-02T10:55:32.210Z,12.52
2023-04-02T10:58:07.356Z,12.63
2023-04-02T11:00:41.472Z,12.68
2023-04-02T11:03:37.613Z,12.80
2023-04-02T11:06:17.649Z,12.98
2023-04-02T11:08:50.110Z,13.21
2023-04-02T11:11:24.847Z,13.49
2023-04-02T11:13:59.295Z,13.78
2023-04-02T11:16:28.112Z,13.98
2023-04-02T11:19:15.820Z,14.13
2023-04-02T11:22:06.531Z,14.27
2023-04-02T11:24:44.312Z,14.46
2023-04-02T11:27:12.548Z,14.50
2023-04-02T11:29:53.116Z,14.48
2023-04-02T11:32:27.747Z,14.43
2023-04-02T11:35:06.698Z,14.46
2023-04-02T11:37:42.833Z,14.43
2023-04-02T11:40:11.031Z,14.42
2023-04-02T11:42:44.616Z,14.41
2023-04-02T11:45:23.438Z,14.41
2023-04-02T11:48:27.137Z,14.39
2023-04-02T11:50:55.820Z,14.34
2023-04-02T11:53:36.764Z,14.33
2023-04-02T11:56:18.276Z,14.27
2023-04-02T11:59:14.599Z,14.15
2023-04-02T12:02:10.403Z,14.06
2023-04-02T12:05:07.807Z,14.06
2023-04-02T12:08:07.761Z,13.97
2023-04-02T12:10:56.920Z,13.92
2023-04-02T12:13:40.661Z,13.90
2023-04-02T12:16:13.530Z,13.81
2023-04-02T12:18:54.650Z,13.66
2023-04-02T12:21:28.307Z,13.59
2023-04-02T12:23:59.524Z,13.53
2023-04-02T12:26:37.808Z,13.62
2023-04-02T12:29:28.571Z,13.70
2023-04-02T12:31:58.901Z,13.76
2023-04-02T12:34:29.952Z,13.77
2023-04-02T12:37:05.704Z,13.83
2023-04-02T12:39:35.073Z,13.79
2023-04-02T12:42:03.394Z,13.81
2023-04-02T12:44:33.101Z,13.82
2023-04-02T12:47:01.717Z,13.77
2023-04-02T12:49:43.989Z,13.69
2023-04-02T12:52:15.959Z,13.64
2023-04-02T12:54:57.505Z,13.60
2023-04-02T12:57:25.982Z,13.51
2023-04-02T13:00:00.657Z,13.45
2023-04-02T13:02:32.910Z,13.41
2023-04-02T13:05:02.447Z,13.41
2023-04-02T13:07:33.695Z,13.40
2023-04-02T13:10:23.268Z,13.32
2023-04-02T13:12:57.998Z,13.28
2023-04-02T13:15:33.601Z,13.32
2023-04-02T13:18:18.812Z,13.35
2023-04-02T13:20:59.887Z,13.39
2023-04-02T13:23:31.133Z,13.37
2023-04-02T13:26:17.224Z,13.30
2023-04-02T13:29:20.298Z,13.32
2023-04-02T13:31:49.677Z,13.30
2023-04-02T13:34:18.496Z,13.28
2023-04-02T13:36:47.316Z,13.18
2023-04-02T13:39:15.886Z,13.10
2023-04-02T13:42:03.043Z,13.09
2023-04-02T13:44:35.071Z,13.06
2023-04-02T13:47:03.870Z,13.07
2023-04-02T13:49:32.750Z,13.01
2023-04-02T13:52:05.743Z,12.91
2023-04-02T13:54:41.204Z,12.82
2023-04-02T13:57:09.653Z,12.77
2023-04-02T13:59:38.154Z,12.69
2023-04-02T14:02:10.821Z,12.66
2023-04-02T14:04:43.742Z,12.65
2023-04-02T14:07:24.610Z,12.62
2023-04-02T14:10:11.809Z,12.60
2023-04-02T14:12:59.945Z,12.63
2023-04-02T14:15:53.505Z,12.61
2023-04-02T14:19:01.097Z,12.61
2023-04-02T14:22:10.917Z,12.56
2023-04-02T14:24:53.110Z,12.56
2023-04-02T14:27:21.603Z,12.50
2023-04-02T14:30:02.671Z,12.45
2023-04-02T14:32:45.135Z,12.41
2023-04-02T14:35:38.969Z,12.36
2023-04-02T14:38:19.776Z,12.33
2023-04-02T14:40:51.752Z,12.30
2023-04-02T14:43:28.146Z,12.26
2023-04-02T14:46:03.016Z,12.25
2023-04-02T14:48:34.537Z,12.26
2023-04-02T14:51:21.485Z,12.26
2023-04-02T14:54:19.093Z,12.29
2023-04-02T14:57:17.056Z,12.34
2023-04-02T15:00:06.721Z,12.33
2023-04-02T15:02:49.499Z,12.27
2023-04-02T15:05:20.388Z,12.26
2023-04-02T15:08:03.596Z,12.29
2023-04-02T15:10:35.842Z,12.30
2023-04-02T15:13:12.673Z,12.31
2023-04-02T15:15:52.615Z,12.34
2023-04-02T15:18:21.113Z,12.41
2023-04-02T15:20:49.567Z,12.41
2023-04-02T15:23:29.330Z,12.34
2023-04-02T15:26:12.806Z,12.33
2023-04-02T15:29:29.203Z,12.35
2023-04-02T15:32:22.995Z,12.37
2023-04-02T15:34:55.466Z,12.37
2023-04-02T15:37:32.754Z,12.35
2023-04-02T15:40:23.872Z,12.31
2023-04-02T15:43:06.967Z,12.27
2023-04-02T15:45:49.925Z,12.18
2023-04-02T15:48:51.536Z,12.09
2023-04-02T15:51:33.014Z,12.00
2023-04-02T15:54:22.074Z,11.97
2023-04-02T15:57:20.190Z,11.92
2023-04-02T15:59:48.625Z,11.87
2023-04-02T16:02:44.999Z,11.81
2023-04-02T16:05:32.061Z,11.77
2023-04-02T16:08:15.912Z,11.78
2023-04-02T16:10:45.777Z,11.75
2023-04-02T16:13:17.468Z,11.74
2023-04-02T16:15:58.854Z,11.73
2023-04-02T16:18:38.499Z,11.69
2023-04-02T16:21:10.669Z,11.66
2023-04-02T16:23:40.653Z,11.65
2023-04-02T16:26:22.180Z,11.65
2023-04-02T16:29:19.293Z,11.65
2023-04-02T16:32:11.537Z,11.62
2023-04-02T16:35:09.545Z,11.53
2023-04-02T16:37:56.316Z,11.48
2023-04-02T16:40:25.972Z,11.44
2023-04-02T16:43:06.902Z,11.42
2023-04-02T16:45:43.455Z,11.41
2023-04-02T16:48:11.946Z,11.40
2023-04-02T16:50:58.546Z,11.38
2023-04-02T16:54:02.198Z,11.34
2023-04-02T16:56:54.494Z,11.31
2023-04-02T16:59:44.548Z,11.29
2023-04-02T17:02:42.582Z,11.30
2023-04-02T17:05:26.039Z,11.33
2023-04-02T17:08:03.688Z,11.40
2023-04-02T17:10:32.111Z,11.46
2023-04-02T17:13:13.158Z,11.49
2023-04-02T17:15:47.447Z,11.44
2023-04-02T17:18:24.803Z,11.39
2023-04-02T17:21:02.289Z,11.30
2023-04-02T17:23:38.442Z,11.19
2023-04-02T17:26:13.974Z,11.11
2023-04-02T17:28:44.574Z,11.11
2023-04-02T17:31:21.952Z,11.16
2023-04-02T17:33:50.602Z,11.24
2023-04-02T17:37:00.442Z,11.32
2023-04-02T17:39:42.026Z,11.38
2023-04-02T17:42:35.583Z,11.40
2023-04-02T17:45:17.591Z,11.47
2023-04-02T17:47:59.157Z,11.52
2023-04-02T17:51:01.837Z,11.51
2023-04-02T17:54:10.747Z,11.54
2023-04-02T17:57:11.739Z,11.58
2023-04-02T17:59:46.291Z,11.58
2023-04-02T18:02:39.599Z,11.58
2023-04-02T18:05:21.846Z,11.48
2023-04-02T18:08:12.641Z,11.32
2023-04-02T18:10:51.057Z,11.16
2023-04-02T18:13:29.372Z,11.00
2023-04-02T18:16:46.301Z,10.85
2023-04-02T18:19:27.815Z,10.70
2023-04-02T18:22:08.949Z,10.60
2023-04-02T18:24:55.521Z,10.56
2023-04-02T18:27:54.394Z,10.47
2023-04-02T18:30:41.135Z,10.38
2023-04-02T18:33:36.098Z,10.39
2023-04-02T18:37:34.776Z,10.43
2023-04-02T18:40:42.203Z,10.58
2023-04-02T18:43:19.817Z,10.59
2023-04-02T18:45:48.333Z,10.61
2023-04-02T18:48:32.127Z,10.58
2023-04-02T18:51:01.763Z,10.55
2023-04-02T18:53:32.916Z,10.53
2023-04-02T18:56:14.080Z,10.48
2023-04-02T18:58:52.902Z,10.43
2023-04-02T19:01:37.073Z,10.35
2023-04-02T19:04:15.645Z,10.27
2023-04-02T19:06:48.939Z,10.23
2023-04-02T19:09:31.608Z,10.17
2023-04-02T19:12:01.492Z,10.12
2023-04-02T19:14:30.278Z,10.09
2023-04-02T19:17:22.311Z,10.08
2023-04-02T19:20:14.941Z,10.06
2023-04-02T19:23:07.874Z,10.03
2023-04-02T19:25:49.765Z,9.98
2023-04-02T19:28:21.019Z,9.97
2023-04-02T19:30:56.767Z,10.02
2023-04-02T19:33:34.814Z,10.02
2023-04-02T19:36:18.447Z,10.01
2023-04-02T19:39:09.749Z,9.98
2023-04-02T19:41:44.345Z,9.98
2023-04-02T19:44:13.688Z,10.01
2023-04-02T19:46:43.031Z,10.03
2023-04-02T19:49:13.177Z,10.06
2023-04-02T19:51:41.565Z,10.07
2023-04-02T19:54:10.204Z,10.06
2023-04-02T19:56:38.743Z,10.04
2023-04-02T19:59:16.992Z,10.01
2023-04-02T20:01:47.547Z,10.01
2023-04-02T20:04:15.942Z,9.98
2023-04-02T20:06:44.849Z,9.94
2023-04-02T20:09:13.246Z,9.90
2023-04-02T20:11:41.738Z,9.85
2023-04-02T20:14:10.639Z,9.79
2023-04-02T20:16:39.470Z,9.75
2023-04-02T20:19:08.011Z,9.71
2023-04-02T20:21:38.533Z,9.68
2023-04-02T20:24:08.351Z,9.64
2023-04-02T20:26:36.749Z,9.63
2023-04-02T20:29:05.246Z,9.62
2023-04-02T20:31:34.208Z,9.61
2023-04-02T20:34:05.427Z,9.59
2023-04-02T20:36:34.175Z,9.59
2023-04-02T20:39:02.583Z,9.57
2023-04-02T20:41:31.357Z,9.57
2023-04-02T20:44:00.771Z,9.54
2023-04-02T20:46:29.890Z,9.54
2023-04-02T20:48:58.664Z,9.50
2023-04-02T20:51:27.044Z,9.46
2023-04-02T20:53:56.352Z,9.41
2023-04-02T20:56:26.812Z,9.38
2023-04-02T20:58:55.477Z,9.36
2023-04-02T21:01:26.702Z,9.36
2023-04-02T21:04:00.576Z,9.35
2023-04-02T21:06:31.680Z,9.32
2023-04-02T21:09:02.015Z,9.29
2023-04-02T21:11:30.802Z,9.26
2023-04-02T21:13:59.300Z,9.27
2023-04-02T21:16:31.505Z,9.29
2023-04-02T21:19:03.327Z,9.27
2023-04-02T21:21:32.591Z,9.20
2023-04-02T21:24:06.910Z,9.16
2023-04-02T21:26:41.964Z,9.14
2023-04-02T21:29:12.484Z,9.14
2023-04-02T21:31:41.666Z,9.13
2023-04-02T21:34:13.903Z,9.12
2023-04-02T21:36:44.974Z,9.10
2023-04-02T21:39:18.782Z,9.08
2023-04-02T21:41:50.308Z,9.08
2023-04-02T21:44:21.532Z,9.03
2023-04-02T21:46:53.666Z,9.01
2023-04-02T21:49:23.853Z,8.99
2023-04-02T21:51:52.629Z,8.99
2023-04-02T21:54:21.292Z,8.98
2023-04-02T21:56:50.550Z,8.98
2023-04-02T21:59:19.227Z,8.98
2023-04-02T22:01:52.372Z,9.00
2023-04-02T22:04:23.820Z,9.00
2023-04-02T22:06:52.975Z,9.01
2023-04-02T22:09:24.836Z,9.02
2023-04-02T22:11:59.489Z,9.00
2023-04-02T22:14:29.480Z,8.95
2023-04-02T22:17:01.591Z,8.94
2023-04-02T22:19:30.656Z,8.94
2023-04-02T22:21:59.147Z,8.91
2023-04-02T22:24:27.839Z,8.91
2023-04-02T22:26:56.521Z,8.90
2023-04-02T22:29:25.011Z,8.88
2023-04-02T22:31:53.493Z,8.85
2023-04-02T22:34:21.881Z,8.80
2023-04-02T22:36:50.579Z,8.79
2023-04-02T22:39:18.952Z,8.77
2023-04-02T22:41:48.154Z,8.72
2023-04-02T22:44:17.971Z,8.67
2023-04-02T22:46:46.765Z,8.64
2023-04-02T22:49:19.575Z,8.66
2023-04-02T22:51:48.043Z,8.65
2023-04-02T22:54:16.729Z,8.65
2023-04-02T22:56:45.360Z,8.65
2023-04-02T22:59:13.869Z,8.62
2023-04-02T23:01:42.213Z,8.59
2023-04-02T23:04:10.687Z,8.59
2023-04-02T23:06:39.167Z,8.56
2023-04-02T23:09:07.662Z,8.54
2023-04-02T23:11:36.449Z,8.54
2023-04-02T23:14:04.837Z,8.53
2023-04-02T23:16:33.341Z,8.51
2023-04-02T23:19:02.341Z,8.51
2023-04-02T23:21:30.920Z,8.50
2023-04-02T23:23:59.293Z,8.48
2023-04-02T23:26:31.611Z,8.44
2023-04-02T23:29:00.988Z,8.45
2023-04-02T23:31:30.889Z,8.44
2023-04-02T23:33:59.282Z,8.43
2023-04-02T23:36:28.886Z,8.40
2023-04-02T23:39:04.266Z,8.40
2023-04-02T23:41:32.644Z,8.44
2023-04-02T23:44:01.327Z,8.44
2023-04-02T23:46:31.976Z,8.37
2023-04-02T23:49:01.591Z,8.32
2023-04-02T23:51:32.421Z,8.28
2023-04-02T23:54:00.784Z,8.25
2023-04-02T23:56:29.283Z,8.24
2023-04-02T23:58:57.760Z,8.26
